Latest Weather Observations for Adelaide Airport

IDS60901

Issued at 7:51 pm CDT Tuesday 24 October 2017 (issued every 10 minutes, with the page automatically refreshed every 10 minutes)

About weather observations | Map of Adelaide area stations | Latest observations for Adelaide area | Other Formats
Station Details ID: 023034 Name: ADELAIDE AIRPORT Lat: -34.95 Lon: 138.52 Height: 2.0 m
Data from the previous 72 hours. | See also: Recent months at Adelaide Airport
Date/Time
CDT
Temp
°C
App
Temp
°C
Dew
Point
°C
Rel
Hum
%
Delta-T
°C
Wind Press
QNH
hPa
Press
MSL
hPa
Rain since
9am
mm
Dir  Spd
km/h
Gust
km/h
Spd
kts
Gust
kts
24/07:30pm 19.2 18.3 13.6 70 3.2 ESE 11 15 6 8 1010.4 1010.4 3.2
24/07:00pm 19.5 18.1 13.4 68 3.5 SSE 13 19 7 10 1010.8 1010.8 3.2
24/06:43pm 20.1 18.4 12.5 61 4.3 NE 13 17 7 9 1010.1 1010.1 3.0
24/06:30pm 20.3 17.8 12.3 60 4.5 NE 17 26 9 14 1010.4 1010.4 3.0
24/06:00pm 20.7 17.8 12.4 59 4.7 NE 19 26 10 14 1010.5 1010.5 3.0
24/05:30pm 20.6 18.0 13.3 63 4.2 ENE 19 26 10 14 1010.7 1010.7 3.0
24/05:00pm 18.9 16.6 14.2 74 2.7 ENE 19 24 10 13 1011.4 1011.4 3.0
24/04:30pm 17.8 16.1 14.7 82 1.8 ENE 17 20 9 11 1012.3 1012.3 3.0
24/04:11pm 17.5 15.4 14.7 83 1.6 ENE 19 24 10 13 1012.8 1012.8 3.0
24/04:00pm 17.7 16.1 14.9 84 1.6 ENE 17 22 9 12 1013.1 1013.1 3.0
24/03:41pm 17.9 17.0 14.8 82 1.8 ENE 13 15 7 8 1014.1 1014.1 2.2
24/03:30pm 17.9 17.0 14.8 82 1.8 NNE 13 15 7 8 1014.2 1014.2 1.4
24/03:16pm 18.1 17.6 13.9 76 2.4 N 9 13 5 7 1014.8 1014.8 1.4
24/03:00pm 18.1 17.8 14.3 78 2.2 N 9 13 5 7 1014.6 1014.6 1.2
24/02:30pm 18.2 15.7 14.0 76 2.4 NNW 20 30 11 16 1015.1 1015.1 0.6
24/02:00pm 19.3 16.2 12.1 63 4.0 NW 20 28 11 15 1014.8 1014.8 0.2
24/01:30pm 22.6 16.2 7.1 36 8.0 NNW 30 43 16 23 1014.1 1014.1 0.0
24/01:00pm 24.7 19.7 4.7 27 10.0 NNW 20 32 11 17 1013.5 1013.5 0.0
24/12:30pm 24.5 20.4 6.2 31 9.4 N 17 20 9 11 1013.4 1013.4 0.0
24/12:00pm 24.5 20.6 7.1 32 9.1 NNW 17 20 9 11 1013.8 1013.8 0.0
24/11:30am 26.2 22.1 4.3 24 11.0 N 15 22 8 12 1013.5 1013.5 0.0
24/11:00am 25.8 20.3 3.9 24 10.9 NNE 22 28 12 15 1013.2 1013.2 0.0
24/10:30am 25.2 19.8 4.7 26 10.3 NNE 22 30 12 16 1013.0 1013.0 0.0
24/10:00am 24.4 19.4 4.8 28 9.8 NNE 20 28 11 15 1013.1 1013.1 0.0
24/09:30am 23.6 19.6 6.8 34 8.7 NE 17 22 9 12 1013.1 1013.1 0.0
24/09:00am 22.5 19.6 8.0 39 7.6 NE 13 17 7 9 1013.6 1013.6 0.0
24/08:30am 21.0 19.6 10.8 52 5.6 NE 9 11 5 6 1014.1 1014.1 0.0
24/08:00am 18.2 18.9 12.2 68 3.3 CALM 0 4 0 2 1014.1 1014.1 0.0
24/07:30am 17.0 16.6 12.3 74 2.6 NNW 6 9 3 5 1014.2 1014.2 0.0
24/07:00am 15.7 14.1 11.6 76 2.2 NE 11 11 6 6 1013.8 1013.8 0.0
24/06:30am 15.8 14.6 12.9 83 1.6 ESE 11 13 6 7 1014.0 1014.0 0.0
24/06:00am 16.7 16.5 13.7 82 1.7 SSW 7 9 4 5 1014.5 1014.5 0.0
24/05:30am 14.8 14.5 12.6 87 1.2 W 6 7 3 4 1013.9 1013.9 0.0
24/05:00am 13.7 14.2 11.6 87 1.1 CALM 0 0 0 0 1013.4 1013.4 0.0
24/04:30am 13.7 14.2 11.6 87 1.1 CALM 0 0 0 0 1013.3 1013.3 0.0
24/04:00am 14.0 13.2 11.8 86 1.2 SSW 7 9 4 5 1013.4 1013.4 0.0
24/03:30am 14.1 14.8 12.1 88 1.1 CALM 0 0 0 0 1013.3 1013.3 0.0
24/03:00am 15.0 15.8 12.4 84 1.4 CALM 0 0 0 0 1013.5 1013.5 0.0
24/02:30am 15.4 16.2 12.7 84 1.5 CALM 0 0 0 0 1013.8 1013.8 0.0
24/02:00am 15.7 16.6 12.8 83 1.6 CALM 0 0 0 0 1014.2 1014.2 0.0
24/01:30am 15.7 15.2 12.8 83 1.6 WSW 7 9 4 5 1014.6 1014.6 0.0
24/01:00am 16.1 15.4 13.2 83 1.6 SSW 9 11 5 6 1015.0 1015.0 0.0
24/12:30am 16.5 16.5 13.7 83 1.6 SE 6 9 3 5 1015.1 1015.1 0.0
24/12:00am 16.0 17.1 13.5 85 1.4 CALM 0 0 0 0 1015.7 1015.7 0.0
 
Date/Time
CDT
Temp
°C
App
Temp
°C
Dew
Point
°C
Rel
Hum
%
Delta-T
°C
Wind Press
QNH
hPa
Press
MSL
hPa
Rain since
9am
mm
Dir  Spd
km/h
Gust
km/h
Spd
kts
Gust
kts
23/11:30pm 16.5 17.7 13.8 84 1.5 CALM 0 0 0 0 1015.8 1015.8 0.0
23/11:00pm 16.3 17.5 13.8 85 1.4 CALM 0 0 0 0 1015.9 1015.9 0.0
23/10:30pm 15.9 15.8 13.2 84 1.5 E 6 7 3 4 1015.9 1015.9 0.0
23/10:00pm 16.5 16.9 13.8 84 1.5 ENE 4 9 2 5 1016.0 1016.0 0.0
23/09:30pm 16.8 18.2 14.5 86 1.3 CALM 0 0 0 0 1016.0 1016.0 0.0
23/09:00pm 17.0 16.6 14.0 82 1.7 W 9 13 5 7 1016.0 1016.0 0.0
23/08:30pm 16.9 16.5 13.1 78 2.1 ESE 7 11 4 6 1015.7 1015.7 0.0
23/08:00pm 17.3 16.0 12.4 73 2.7 SW 11 15 6 8 1015.8 1015.8 0.0
23/07:30pm 17.5 15.7 12.0 70 3.0 SW 13 15 7 8 1015.7 1015.7 0.0
23/07:00pm 18.2 17.6 13.4 73 2.7 W 9 11 5 6 1015.3 1015.3 0.0
23/06:30pm 18.0 16.9 13.2 73 2.7 WSW 11 11 6 6 1015.4 1015.4 0.0
23/06:00pm 18.3 16.5 13.3 72 2.8 WSW 15 17 8 9 1015.4 1015.4 0.0
23/05:30pm 19.5 18.6 11.5 60 4.4 S 7 11 4 6 1015.2 1015.2 0.0
23/05:00pm 18.4 16.3 11.2 63 3.9 SSW 13 17 7 9 1015.6 1015.6 0.0
23/04:30pm 18.1 15.6 12.3 69 3.2 SW 17 19 9 10 1015.9 1015.9 0.0
23/04:00pm 19.1 15.9 11.9 63 4.0 SW 20 24 11 13 1016.3 1016.3 0.0
23/03:30pm 18.3 15.2 11.5 64 3.7 SW 19 24 10 13 1016.6 1016.6 0.0
23/03:00pm 18.5 14.7 11.3 63 3.9 SW 22 26 12 14 1017.0 1017.0 0.0
23/02:30pm 18.9 15.2 11.4 61 4.1 SW 22 28 12 15 1017.4 1017.4 0.0
23/02:00pm 18.7 15.4 10.9 60 4.2 SW 19 24 10 13 1017.4 1017.4 0.0
23/01:30pm 18.2 14.7 10.1 59 4.3 SW 19 26 10 14 1017.7 1017.7 0.0
23/01:00pm 18.7 14.4 10.9 60 4.2 WSW 24 30 13 16 1018.1 1018.1 0.0
23/12:30pm 18.2 15.2 10.5 60 4.1 SW 17 24 9 13 1018.0 1018.0 0.0
23/12:00pm 19.0 16.3 10.4 57 4.6 N 15 20 8 11 1018.4 1018.4 0.0
23/11:30am 19.2 17.2 8.8 51 5.4 N 9 17 5 9 1018.9 1018.9 0.0
23/11:00am 19.2 16.4 8.4 49 5.6 N 13 20 7 11 1019.3 1019.3 0.0
23/10:30am 18.1 15.8 9.1 55 4.7 NNE 11 19 6 10 1019.3 1019.3 0.0
23/10:00am 16.9 14.2 8.9 59 4.1 NE 13 19 7 10 1019.8 1019.8 0.0
23/09:30am 15.8 13.9 9.2 65 3.4 NNE 9 13 5 7 1020.1 1020.1 0.0
23/09:00am 14.8 12.1 9.1 68 2.9 NNE 13 19 7 10 1020.3 1020.3 0.0
23/08:30am 14.3 12.1 9.2 71 2.6 N 11 15 6 8 1020.4 1020.4 0.0
23/08:00am 13.0 10.7 9.0 77 2.0 NE 11 13 6 7 1020.0 1020.0 0.0
23/07:30am 12.0 9.3 9.0 82 1.5 N 13 17 7 9 1019.8 1019.8 0.0
23/07:00am 11.2 9.7 8.6 84 1.3 NE 6 9 3 5 1019.9 1019.9 0.0
23/06:30am 10.5 7.7 8.7 89 0.9 ESE 13 15 7 8 1019.4 1019.4 0.0
23/06:00am 10.0 7.2 8.4 90 0.8 E 13 15 7 8 1019.4 1019.4 0.0
23/05:30am 10.7 8.7 8.7 87 1.0 ESE 9 11 5 6 1019.3 1019.3 0.0
23/05:00am 11.0 8.7 9.0 87 1.0 SSE 11 13 6 7 1019.5 1019.5 0.0
23/04:30am 11.6 9.0 9.2 85 1.2 S 13 15 7 8 1019.4 1019.4 0.0
23/04:00am 12.0 9.8 9.2 83 1.4 SSW 11 15 6 8 1019.4 1019.4 0.0
23/03:30am 11.5 9.2 8.9 84 1.3 S 11 13 6 7 1019.4 1019.4 0.0
23/03:00am 12.1 9.8 9.1 82 1.5 S 11 13 6 7 1019.8 1019.8 0.0
23/02:30am 12.5 9.8 8.9 79 1.8 SSE 13 17 7 9 1020.2 1020.2 0.0
23/02:00am 13.4 10.4 9.3 76 2.1 S 15 19 8 10 1020.6 1020.6 0.0
23/01:30am 13.6 11.2 9.9 78 1.9 S 13 17 7 9 1021.2 1021.2 0.0
23/01:00am 13.7 10.9 10.0 78 1.9 S 15 19 8 10 1021.5 1021.5 0.0
23/12:30am 14.1 11.1 9.2 72 2.5 SSE 15 19 8 10 1021.5 1021.5 0.0
23/12:00am 14.0 11.3 8.8 71 2.6 SSE 13 19 7 10 1021.6 1021.6 0.0
 
Date/Time
CDT
Temp
°C
App
Temp
°C
Dew
Point
°C
Rel
Hum
%
Delta-T
°C
Wind Press
QNH
hPa
Press
MSL
hPa
Rain since
9am
mm
Dir  Spd
km/h
Gust
km/h
Spd
kts
Gust
kts
22/11:30pm 13.7 10.2 8.9 73 2.4 SSE 17 22 9 12 1021.6 1021.6 0.0
22/11:00pm 13.2 10.8 8.8 74 2.2 S 11 15 6 8 1021.8 1021.8 0.0
22/10:30pm 13.0 10.4 7.9 71 2.5 SSE 11 15 6 8 1021.7 1021.7 0.0
22/10:00pm 13.2 10.2 7.9 70 2.6 SE 13 17 7 9 1021.8 1021.8 0.0
22/09:30pm 13.7 10.9 8.5 71 2.6 SSE 13 19 7 10 1021.7 1021.7 0.0
22/09:00pm 14.4 11.6 8.4 67 3.0 S 13 19 7 10 1021.6 1021.6 0.0
22/08:30pm 14.9 11.8 9.0 68 3.0 SSW 15 19 8 10 1021.5 1021.5 0.0
22/08:00pm 15.1 11.9 8.6 65 3.3 SSW 15 24 8 13 1021.5 1021.5 0.0
22/07:30pm 15.5 11.6 9.3 66 3.2 SSW 20 30 11 16 1021.4 1021.4 0.0
22/07:00pm 15.5 10.2 9.9 69 2.9 SW 28 35 15 19 1021.3 1021.3 0.0
22/06:30pm 16.0 10.2 9.6 66 3.3 SW 30 37 16 20 1020.8 1020.8 0.0
22/06:00pm 16.6 10.9 9.7 63 3.6 SSW 30 39 16 21 1021.1 1021.1 0.0
22/05:30pm 16.0 11.3 10.7 71 2.8 SW 26 35 14 19 1021.1 1021.1 0.0
22/05:00pm 16.5 10.8 11.1 70 2.9 SW 32 41 17 22 1020.9 1020.9 0.0
22/04:30pm 17.3 12.0 11.4 68 3.2 SW 30 37 16 20 1021.0 1021.0 0.0
22/04:00pm 16.1 10.7 11.0 72 2.7 SW 30 39 16 21 1021.1 1021.1 0.0
22/03:30pm 16.2 10.7 10.7 70 2.9 SW 30 35 16 19 1021.1 1021.1 0.0
22/03:00pm 17.2 11.6 10.2 63 3.7 SW 30 37 16 20 1021.3 1021.3 0.0
22/02:30pm 17.0 11.7 10.0 63 3.7 SW 28 37 15 20 1021.6 1021.6 0.0
22/02:00pm 17.3 12.0 9.9 62 3.9 SW 28 33 15 18 1022.1 1022.1 0.0
22/01:30pm 17.6 13.0 9.6 59 4.2 SW 24 32 13 17 1022.4 1022.4 0.0
22/01:00pm 17.2 13.3 9.5 60 4.0 SW 20 30 11 16 1022.7 1022.7 0.0
22/12:30pm 16.2 11.5 9.2 63 3.6 SW 24 32 13 17 1022.9 1022.9 0.0
22/12:00pm 15.5 11.1 10.3 71 2.7 SW 24 32 13 17 1023.1 1023.1 0.0
22/11:30am 15.7 12.5 9.9 68 3.0 SW 17 26 9 14 1023.4 1023.4 0.0
22/11:00am 15.1 11.3 11.3 78 2.0 SW 22 30 12 16 1023.6 1023.6 0.0
22/10:30am 15.6 11.9 9.4 66 3.2 SW 19 26 10 14 1023.6 1023.6 0.0
22/10:00am 14.8 11.0 8.9 68 3.0 SW 19 26 10 14 1023.6 1023.6 0.0
22/09:30am 14.5 11.0 8.7 68 2.9 SW 17 24 9 13 1023.7 1023.7 0.0
22/09:00am 14.3 10.8 8.7 69 2.8 SSW 17 26 9 14 1023.6 1023.6 0.0
22/08:30am 14.7 10.9 7.6 62 3.5 SSW 17 24 9 13 1023.6 1023.6 0.0
22/08:00am 14.4 10.7 6.2 58 3.9 S 15 19 8 10 1023.4 1023.4 0.0
22/07:30am 13.8 10.0 5.7 58 3.8 SSW 15 22 8 12 1023.2 1023.2 0.0
22/07:00am 13.3 9.0 5.3 58 3.7 S 17 28 9 15 1023.0 1023.0 0.0
22/06:30am 13.0 9.7 6.5 64 3.1 S 13 19 7 10 1023.0 1023.0 0.0
22/06:00am 12.5 10.6 7.5 71 2.4 SSW 7 9 4 5 1022.9 1022.9 0.0
22/05:30am 12.2 10.0 7.7 74 2.2 SSW 9 9 5 5 1023.0 1023.0 0.0
22/05:00am 11.8 9.7 8.3 79 1.7 S 9 11 5 6 1022.9 1022.9 0.0
22/04:30am 11.7 8.8 8.0 78 1.8 S 13 17 7 9 1023.0 1023.0 0.0
22/04:00am 12.0 9.1 8.1 77 1.9 S 13 17 7 9 1023.2 1023.2 0.0
22/03:30am 11.8 9.3 8.3 79 1.7 S 11 15 6 8 1023.3 1023.3 0.0
22/03:00am 11.3 9.2 8.4 82 1.4 S 9 11 5 6 1023.7 1023.7 0.0
22/02:30am 10.9 8.5 8.7 86 1.1 SSW 11 15 6 8 1024.0 1024.0 0.0
22/02:00am 11.7 8.2 8.9 83 1.4 SSE 17 22 9 12 1024.3 1024.3 0.0
22/01:30am 12.2 9.6 7.9 75 2.1 SSE 11 15 6 8 1024.6 1024.6 0.0
22/01:00am 12.6 9.5 7.4 70 2.5 SSE 13 19 7 10 1025.1 1025.1 0.0
22/12:30am 12.7 9.2 7.3 69 2.6 S 15 24 8 13 1025.2 1025.2 0.0
22/12:00am 12.6 9.1 7.2 69 2.6 S 15 20 8 11 1025.4 1025.4 0.0
 
Date/Time
CDT
Temp
°C
App
Temp
°C
Dew
Point
°C
Rel
Hum
%
Delta-T
°C
Wind Press
QNH
hPa
Press
MSL
hPa
Rain since
9am
mm
Dir  Spd
km/h
Gust
km/h
Spd
kts
Gust
kts
21/11:30pm 12.6 9.9 7.4 70 2.5 S 11 15 6 8 1025.6 1025.6 0.0
21/11:00pm 12.6 9.3 7.9 73 2.3 S 15 19 8 10 1025.8 1025.8 0.0
21/10:30pm 12.6 8.3 7.9 73 2.3 S 20 30 11 16 1026.0 1026.0 0.0
21/10:00pm 13.1 8.8 6.8 65 3.0 SSE 19 26 10 14 1026.1 1026.1 0.0
21/09:30pm 13.9 9.3 5.6 57 3.9 SSW 19 26 10 14 1026.2 1026.2 0.0
21/09:00pm 13.9 9.1 5.8 58 3.8 S 20 28 11 15 1026.2 1026.2 0.0
21/08:30pm 14.0 9.2 5.4 56 4.0 SSE 20 30 11 16 1026.3 1026.3 0.0
21/08:00pm 14.3 9.1 5.6 56 4.1 S 22 32 12 17 1026.2 1026.2 0.0

Latest Capital City Observations: Canberra | Sydney | Melbourne | Brisbane | Adelaide | Perth | Hobart | Darwin

Other Formats:

Comma delimited format used in spreadsheet applications
http://www.bom.gov.au/fwo/IDS60901/IDS60901.94672.axf

JavaScript Object Notation format (JSON) in row-major order
http://www.bom.gov.au/fwo/IDS60901/IDS60901.94672.json